Time;durP1;ratioP1;P1;durP2;ratioP2;P2;SDS_P1;SDS_P2;PMS_P1;PMS_P2;Temp;Humidity;BMP_temperature;BMP_pressure;BME280_temperature;BME280_humidity;BME280_pressure;Samples;Min_cycle;Max_cycle;Signal;HPM_P1;HPM_P2
2022/01/13 00:00:28;;;;;;;40.97;11.25;;;;;;;0.67;100.00;103946.19;2090353;28;20096;-67
2022/01/13 00:01:34;;;;;;;48.60;12.27;;;;;;;0.64;100.00;103938.31;2090281;28;20025;-66
2022/01/13 00:02:36;;;;;;;31.45;10.13;;;;;;;0.62;100.00;103933.09;2090455;28;20502;-66
2022/01/13 00:03:37;;;;;;;41.10;12.27;;;;;;;0.62;100.00;103938.22;2091136;28;20029;-67
2022/01/13 00:04:38;;;;;;;35.67;11.55;;;;;;;0.64;100.00;103940.88;2090931;28;20025;-67
2022/01/13 00:05:38;;;;;;;46.55;11.05;;;;;;;0.64;100.00;103936.63;2090886;28;20040;-66
2022/01/13 00:06:39;;;;;;;16.90;7.93;;;;;;;0.66;100.00;103939.28;2090893;28;20517;-67
2022/01/13 00:07:39;;;;;;;;;;;;;;;0.66;100.00;103943.53;2091250;28;20036;-68
2022/01/13 00:08:40;;;;;;;23.65;8.77;;;;;;;0.63;100.00;103951.97;2090851;28;20320;-67
2022/01/13 00:09:40;;;;;;;29.40;9.77;;;;;;;0.63;100.00;103950.31;2090758;28;20028;-65
2022/01/13 00:10:40;;;;;;;29.57;11.00;;;;;;;0.62;100.00;103940.78;2090871;28;20056;-67
2022/01/13 00:11:42;;;;;;;25.13;11.03;;;;;;;0.61;100.00;103939.03;2091019;28;20430;-67
2022/01/13 00:12:44;;;;;;;35.60;12.63;;;;;;;0.62;100.00;103948.50;2090882;28;20040;-67
2022/01/13 00:13:49;;;;;;;25.92;11.98;;;;;;;0.64;100.00;103946.03;2090754;28;20474;-66
2022/01/13 00:15:09;;;;;;;26.67;10.20;;;;;;;0.61;100.00;103946.75;2090023;28;20036;-68
2022/01/13 00:16:26;;;;;;;57.20;13.27;;;;;;;0.58;100.00;103956.88;2090348;28;20047;-68
2022/01/13 00:18:50;;;;;;;32.00;11.68;;;;;;;0.47;100.00;103951.22;2090886;28;20040;-67
2022/01/13 00:20:11;;;;;;;33.92;11.52;;;;;;;0.43;100.00;103957.00;2090692;28;20092;-67
2022/01/13 00:24:37;;;;;;;32.03;10.52;;;;;;;0.37;100.00;103956.69;2090828;28;20154;-66
2022/01/13 00:25:38;;;;;;;46.10;11.40;;;;;;;0.36;100.00;103960.06;2090832;28;20458;-66
2022/01/13 00:26:39;;;;;;;40.03;11.25;;;;;;;0.36;100.00;103949.78;2090602;28;20124;-66
2022/01/13 00:27:44;;;;;;;39.33;11.55;;;;;;;0.37;100.00;103956.69;2090473;28;20029;-67
2022/01/13 00:28:48;;;;;;;51.47;11.38;;;;;;;0.34;100.00;103957.41;2090535;28;20097;-66
2022/01/13 00:29:48;;;;;;;35.88;10.30;;;;;;;0.32;100.00;103958.16;2090294;28;20071;-67
2022/01/13 00:30:53;;;;;;;36.83;10.73;;;;;;;0.34;100.00;103961.69;2090204;28;20102;-67
2022/01/13 00:31:53;;;;;;;42.95;10.05;;;;;;;0.36;100.00;103965.19;2090310;28;20021;-67
2022/01/13 00:32:54;;;;;;;47.53;11.83;;;;;;;0.35;100.00;103961.75;2090878;28;20025;-67
2022/01/13 00:33:57;;;;;;;38.60;11.17;;;;;;;0.35;100.00;103959.16;2090788;28;20021;-67
2022/01/13 00:34:57;;;;;;;35.83;11.32;;;;;;;0.37;100.00;103966.97;2090677;28;20470;-67
2022/01/13 00:35:59;;;;;;;37.85;11.35;;;;;;;0.38;100.00;103958.47;2090596;28;20017;-67
2022/01/13 00:37:00;;;;;;;30.40;10.80;;;;;;;0.39;100.00;103957.66;2089850;28;20024;-67
2022/01/13 00:38:00;;;;;;;29.10;11.10;;;;;;;0.38;100.00;103953.34;2090040;28;20385;-67
2022/01/13 00:39:00;;;;;;;54.20;12.90;;;;;;;0.38;100.00;103958.47;2089895;28;20033;-67
2022/01/13 00:40:00;;;;;;;41.73;11.77;;;;;;;0.40;100.00;103956.84;2090048;28;20075;-67
2022/01/13 00:41:01;;;;;;;37.23;10.93;;;;;;;0.42;100.00;103954.34;2089937;28;20286;-67
2022/01/13 00:42:02;;;;;;;36.60;10.82;;;;;;;0.43;100.00;103957.00;2089951;28;20099;-67
2022/01/13 00:43:02;;;;;;;33.40;11.05;;;;;;;0.43;100.00;103959.56;2090553;28;20025;-67
2022/01/13 00:44:05;;;;;;;49.17;11.33;;;;;;;0.42;100.00;103955.25;2090504;28;20017;-66
2022/01/13 00:45:06;;;;;;;41.40;12.10;;;;;;;0.40;100.00;103951.69;2090433;28;20025;-67
2022/01/13 00:46:08;;;;;;;38.70;11.50;;;;;;;0.41;100.00;103952.59;2090596;28;20057;-67
2022/01/13 00:47:10;;;;;;;45.55;11.40;;;;;;;0.40;100.00;103946.56;2090565;28;20020;-67
2022/01/13 00:48:10;;;;;;;40.95;11.38;;;;;;;0.43;100.00;103951.88;2089833;28;20039;-67
2022/01/13 00:49:13;;;;;;;28.60;11.93;;;;;;;0.45;100.00;103946.81;2089869;28;20534;-66
2022/01/13 00:50:13;;;;;;;48.85;12.38;;;;;;;0.43;100.00;103944.16;2090494;28;20104;-67
2022/01/13 00:51:13;;;;;;;38.10;11.53;;;;;;;0.45;100.00;103945.09;2090497;28;20382;-67
2022/01/13 00:52:14;;;;;;;36.07;11.73;;;;;;;0.45;100.00;103945.09;2090483;28;20025;-66
2022/01/13 00:53:14;;;;;;;43.93;12.37;;;;;;;0.44;100.00;103940.78;2090563;28;20029;-66
2022/01/13 00:54:15;;;;;;;41.60;13.02;;;;;;;0.45;100.00;103949.38;2090594;28;20132;-67
2022/01/13 00:55:20;;;;;;;41.60;12.18;;;;;;;0.43;100.00;103944.16;2090528;28;20401;-66
2022/01/13 00:56:21;;;;;;;57.58;13.35;;;;;;;0.46;100.00;103944.31;2090396;28;20108;-66
2022/01/13 00:57:21;;;;;;;42.37;13.20;;;;;;;0.45;100.00;103945.09;2090441;28;20021;-67
2022/01/13 00:58:21;;;;;;;37.03;13.20;;;;;;;0.47;100.00;103943.50;2090419;28;20430;-68
2022/01/13 00:59:21;;;;;;;36.67;10.60;;;;;;;0.46;100.00;103939.19;2090461;28;20020;-66
2022/01/13 01:00:22;;;;;;;26.40;11.07;;;;;;;0.44;100.00;103939.91;2090404;28;20025;-67
2022/01/13 01:01:22;;;;;;;27.30;9.77;;;;;;;0.42;100.00;103936.38;2089697;28;20450;-67
2022/01/13 01:02:22;;;;;;;31.27;10.87;;;;;;;0.38;100.00;103943.06;2089831;28;20025;-67
2022/01/13 01:03:23;;;;;;;41.13;12.03;;;;;;;0.39;100.00;103939.66;2089747;28;20116;-68
2022/01/13 01:04:24;;;;;;;37.95;12.93;;;;;;;0.39;100.00;103939.66;2081484;28;20013;-67
2022/01/13 01:05:24;;;;;;;42.37;10.40;;;;;;;0.40;100.00;103930.28;2081532;28;20424;-65
2022/01/13 01:06:24;;;;;;;41.07;11.87;;;;;;;0.40;100.00;103931.16;2081347;28;20029;-67
2022/01/13 01:07:24;;;;;;;45.43;11.43;;;;;;;0.41;100.00;103938.03;2089758;28;20060;-67
2022/01/13 01:08:25;;;;;;;30.83;10.60;;;;;;;0.43;100.00;103935.56;2089737;28;20027;-67
2022/01/13 01:09:48;;;;;;;36.05;10.48;;;;;;;0.44;100.00;103933.06;2089564;28;20033;-66
2022/01/13 01:10:50;;;;;;;27.48;10.15;;;;;;;0.43;100.00;103935.56;2089943;28;20039;-66
2022/01/13 01:11:53;;;;;;;42.10;11.05;;;;;;;0.41;100.00;103943.19;2090320;28;20565;-67
2022/01/13 01:12:53;;;;;;;31.17;10.32;;;;;;;0.40;100.00;103938.00;2090314;28;20024;-65
2022/01/13 01:13:55;;;;;;;36.57;11.40;;;;;;;0.36;100.00;103939.50;2090359;28;20020;-67
2022/01/13 01:14:57;;;;;;;34.97;11.48;;;;;;;0.36;100.00;103934.38;2090289;28;20009;-66
2022/01/13 01:16:01;;;;;;;38.50;12.23;;;;;;;0.38;100.00;103937.91;2090322;28;20016;-66
2022/01/13 01:17:02;;;;;;;39.20;11.40;;;;;;;0.37;100.00;103933.56;2089603;28;20398;-67
2022/01/13 01:18:12;;;;;;;36.85;11.48;;;;;;;0.38;100.00;103937.91;2089605;28;20029;-66
2022/01/13 01:19:14;;;;;;;39.50;12.32;;;;;;;0.37;100.00;103936.13;2090308;28;20029;-65
2022/01/13 01:20:14;;;;;;;28.40;10.90;;;;;;;0.36;100.00;103936.94;2090169;28;20053;-66
2022/01/13 01:21:35;;;;;;;37.13;11.33;;;;;;;0.36;100.00;103931.81;2090339;28;20409;-66
2022/01/13 01:22:42;;;;;;;25.00;9.90;;;;;;;0.36;100.00;103935.25;2090170;28;20475;-65
2022/01/13 01:26:20;;;;;;;27.67;10.38;;;;;;;0.32;100.00;103935.03;2090311;28;20047;-65
2022/01/13 01:27:25;;;;;;;28.88;10.90;;;;;;;0.31;100.00;103936.69;2090213;28;20083;-66
2022/01/13 01:28:34;;;;;;;30.77;9.52;;;;;;;0.31;100.00;103930.69;2090209;28;20025;-66
2022/01/13 01:29:40;;;;;;;28.77;8.90;;;;;;;0.34;100.00;103942.00;2089454;28;20032;-67
2022/01/13 01:30:43;;;;;;;28.15;9.10;;;;;;;0.36;100.00;103934.38;2089708;28;20059;-67
2022/01/13 01:31:48;;;;;;;27.25;10.68;;;;;;;0.33;100.00;103945.38;2089530;28;20017;-66
2022/01/13 01:32:49;;;;;;;29.13;10.02;;;;;;;0.31;100.00;103946.97;2089763;28;20083;-66
2022/01/13 01:34:01;;;;;;;40.55;11.63;;;;;;;0.29;100.00;103948.59;2090074;28;20048;-66
2022/01/13 01:35:04;;;;;;;29.35;9.93;;;;;;;0.31;100.00;103943.53;2090254;28;20028;-66
2022/01/13 01:36:05;;;;;;;28.88;9.45;;;;;;;0.32;100.00;103943.63;2090249;28;20025;-67
2022/01/13 01:37:13;;;;;;;31.55;11.88;;;;;;;0.34;100.00;103938.56;2090135;28;20017;-67
2022/01/13 01:38:14;;;;;;;31.42;9.75;;;;;;;0.34;100.00;103941.13;2090115;28;20020;-67
2022/01/13 01:39:14;;;;;;;34.50;10.17;;;;;;;0.34;100.00;103942.00;2090078;28;20116;-66
2022/01/13 01:40:15;;;;;;;28.87;10.23;;;;;;;0.33;100.00;103942.81;2090246;28;20358;-65
2022/01/13 01:41:16;;;;;;;37.35;10.85;;;;;;;0.31;100.00;103938.41;2090223;28;20279;-66
2022/01/13 01:42:19;;;;;;;27.52;10.13;;;;;;;0.31;100.00;103946.09;2090255;28;20048;-65
2022/01/13 01:43:19;;;;;;;25.67;9.50;;;;;;;0.29;100.00;103940.00;2089798;28;20074;-66
2022/01/13 01:44:29;;;;;;;28.33;10.57;;;;;;;0.29;100.00;103942.56;2089545;28;20079;-66
2022/01/13 01:45:41;;;;;;;37.85;11.27;;;;;;;0.30;100.00;103939.22;2090091;28;20523;-66
2022/01/13 01:46:45;;;;;;;28.40;9.90;;;;;;;0.31;100.00;103941.84;2090144;28;20379;-66
2022/01/13 01:47:49;;;;;;;23.02;9.07;;;;;;;0.30;100.00;103945.22;2090064;28;20442;-65
2022/01/13 01:48:50;;;;;;;42.15;10.05;;;;;;;0.30;100.00;103942.66;2090034;28;20044;-64
2022/01/13 01:49:55;;;;;;;31.60;10.38;;;;;;;0.29;100.00;103938.31;2089971;28;20035;-65
2022/01/13 01:50:58;;;;;;;24.15;10.07;;;;;;;0.28;100.00;103926.28;2090048;28;20474;-66
2022/01/13 01:52:00;;;;;;;27.20;11.30;;;;;;;0.30;100.00;103934.06;2090016;28;20101;-66
2022/01/13 01:53:00;;;;;;;31.00;12.38;;;;;;;0.31;100.00;103930.69;2089976;28;20060;-66
2022/01/13 01:54:00;;;;;;;25.50;11.17;;;;;;;0.32;100.00;103927.31;2089996;28;20405;-66
2022/01/13 01:55:01;;;;;;;26.27;9.00;;;;;;;0.33;100.00;103931.63;2090087;28;20017;-66
2022/01/13 01:56:01;;;;;;;37.20;10.87;;;;;;;0.34;100.00;103926.56;2089381;28;20025;-66
2022/01/13 01:57:02;;;;;;;23.13;8.40;;;;;;;0.33;100.00;103934.22;2089527;28;20021;-67
2022/01/13 01:58:03;;;;;;;;;;;;;;;0.33;100.00;103935.09;2090482;28;20025;-66
2022/01/13 01:59:11;;;;;;;31.05;9.68;;;;;;;0.31;100.00;103920.41;2092845;28;20255;-66
2022/01/13 02:00:14;;;;;;;29.83;8.75;;;;;;;0.29;100.00;103929.72;2090047;28;20070;-66
2022/01/13 02:01:15;;;;;;;27.50;10.10;;;;;;;0.29;100.00;103922.91;2089288;28;20027;-66
2022/01/13 02:02:16;;;;;;;27.63;9.80;;;;;;;0.30;100.00;103926.38;2089374;28;20039;-66
2022/01/13 02:03:16;;;;;;;28.73;9.82;;;;;;;0.31;100.00;103920.41;2090088;28;20588;-67
2022/01/13 02:04:18;;;;;;;30.00;10.13;;;;;;;0.32;100.00;103920.50;2089969;28;20479;-67
2022/01/13 02:05:18;;;;;;;28.80;9.88;;;;;;;0.34;100.00;103915.44;2090004;28;20052;-66
2022/01/13 02:06:19;;;;;;;25.57;9.57;;;;;;;0.36;100.00;103921.53;2090022;28;20497;-65
2022/01/13 02:07:20;;;;;;;27.08;11.32;;;;;;;0.35;100.00;103917.19;2089977;28;20021;-66
2022/01/13 02:08:20;;;;;;;29.47;11.50;;;;;;;0.35;100.00;103912.06;2089935;28;20056;-66
2022/01/13 02:09:22;;;;;;;31.30;8.80;;;;;;;0.35;100.00;103917.19;2089998;28;20454;-67
2022/01/13 02:10:22;;;;;;;28.75;9.25;;;;;;;0.37;100.00;103918.13;2089756;28;20029;-67
2022/01/13 02:11:25;;;;;;;34.77;11.03;;;;;;;0.36;100.00;103913.81;2089975;28;20382;-66
2022/01/13 02:12:35;;;;;;;26.35;10.02;;;;;;;0.36;100.00;103913.81;2089930;28;20052;-66
2022/01/13 02:13:36;;;;;;;47.13;9.98;;;;;;;0.32;100.00;103915.34;2089907;28;20493;-66
2022/01/13 02:14:55;;;;;;;30.10;9.88;;;;;;;0.33;100.00;103918.78;2090030;28;20136;-67
2022/01/13 02:16:02;;;;;;;27.23;8.68;;;;;;;0.35;100.00;103917.19;2089980;28;20017;-67
2022/01/13 02:17:14;;;;;;;23.17;9.07;;;;;;;0.37;100.00;103916.47;2089213;28;20507;-67
2022/01/13 02:18:15;;;;;;;15.27;8.00;;;;;;;0.37;100.00;103923.28;2089485;28;20079;-67
2022/01/13 02:19:15;;;;;;;25.40;9.10;;;;;;;0.35;100.00;103927.47;2089295;28;20029;-66
2022/01/13 02:20:17;;;;;;;22.20;9.07;;;;;;;0.32;100.00;103938.47;2089293;28;20104;-66
2022/01/13 02:21:19;;;;;;;24.80;8.73;;;;;;;0.27;100.00;103928.78;2089354;28;20029;-65
2022/01/13 02:22:20;;;;;;;26.23;9.13;;;;;;;0.24;100.00;103930.38;2089894;28;20032;-65
2022/01/13 02:23:32;;;;;;;32.10;8.75;;;;;;;0.22;100.00;103932.00;2089970;28;20116;-66
2022/01/13 02:24:34;;;;;;;22.95;7.85;;;;;;;0.21;100.00;103935.34;2089978;28;20108;-66
2022/01/13 02:25:35;;;;;;;30.50;10.10;;;;;;;0.21;100.00;103930.22;2089864;28;20021;-66
2022/01/13 02:26:36;;;;;;;23.15;8.48;;;;;;;0.21;100.00;103930.22;2089152;28;20140;-66
2022/01/13 02:27:36;;;;;;;27.45;8.57;;;;;;;0.22;100.00;103937.13;2089275;28;20071;-67
2022/01/13 02:28:38;;;;;;;27.50;7.87;;;;;;;0.22;100.00;103934.56;2089973;28;20033;-67
2022/01/13 02:29:39;;;;;;;29.77;8.15;;;;;;;0.23;100.00;103945.69;2089838;28;20370;-67
2022/01/13 02:30:39;;;;;;;35.33;8.57;;;;;;;0.23;100.00;103954.31;2089911;28;20039;-67
2022/01/13 02:31:39;;;;;;;33.70;8.87;;;;;;;0.21;100.00;103945.63;2089946;28;20311;-66
2022/01/13 02:32:40;;;;;;;26.13;8.67;;;;;;;0.21;100.00;103950.75;2089908;28;20109;-66
2022/01/13 02:33:40;;;;;;;36.92;9.27;;;;;;;0.20;100.00;103951.56;2089981;28;20037;-66
2022/01/13 02:34:41;;;;;;;39.58;8.93;;;;;;;0.19;100.00;103939.53;2089117;28;20025;-65
2022/01/13 02:35:41;;;;;;;23.67;7.93;;;;;;;0.18;100.00;103940.34;2089357;28;20033;-65
2022/01/13 02:36:44;;;;;;;26.03;8.80;;;;;;;0.18;100.00;103939.47;2089230;28;20017;-66
2022/01/13 02:37:44;;;;;;;24.30;8.50;;;;;;;0.20;100.00;103938.72;2089121;28;20397;-67
2022/01/13 02:38:53;;;;;;;34.30;8.57;;;;;;;0.21;100.00;103932.78;2089385;28;20033;-66
2022/01/13 02:39:53;;;;;;;30.17;8.75;;;;;;;0.21;100.00;103930.22;2089864;28;20010;-66
2022/01/13 02:40:56;;;;;;;38.03;9.67;;;;;;;0.21;100.00;103930.22;2089867;28;20013;-66
2022/01/13 02:41:58;;;;;;;32.60;9.88;;;;;;;0.20;100.00;103935.28;2089880;28;20017;-65
2022/01/13 02:42:58;;;;;;;25.60;9.43;;;;;;;0.19;100.00;103936.97;2089810;28;20040;-66
2022/01/13 02:43:59;;;;;;;26.60;8.80;;;;;;;0.19;100.00;103936.97;2089180;28;20040;-65
2022/01/13 02:45:05;;;;;;;36.08;8.77;;;;;;;0.21;100.00;103942.19;2089319;28;20111;-66
2022/01/13 02:46:29;;;;;;;25.38;9.73;;;;;;;0.22;100.00;103933.66;2089903;28;20075;-66
2022/01/13 02:48:46;;;;;;;26.67;9.23;;;;;;;0.23;100.00;103936.31;2089976;28;20067;-66
2022/01/13 02:49:46;;;;;;;29.48;7.38;;;;;;;0.24;100.00;103932.94;2089679;28;20029;-65
2022/01/13 02:50:46;;;;;;;23.60;9.03;;;;;;;0.25;100.00;103932.13;2089892;28;20098;-66
2022/01/13 02:51:49;;;;;;;30.80;9.47;;;;;;;0.24;100.00;103935.50;2089900;28;20024;-66
2022/01/13 02:52:49;;;;;;;24.65;8.50;;;;;;;0.27;100.00;103936.50;2089825;28;20032;-66
2022/01/13 02:53:49;;;;;;;28.20;9.77;;;;;;;0.27;100.00;103928.78;2089820;28;20056;-66
2022/01/13 02:54:49;;;;;;;36.53;9.57;;;;;;;0.27;100.00;103928.78;2089775;28;20099;-67
2022/01/13 02:55:51;;;;;;;24.50;10.13;;;;;;;0.29;100.00;103933.19;2091346;28;20421;-67
2022/01/13 02:56:52;;;;;;;27.73;9.85;;;;;;;0.28;100.00;103930.53;2091360;28;20442;-67
2022/01/13 02:57:53;;;;;;;35.05;9.48;;;;;;;0.28;100.00;103933.09;2091357;28;20025;-67
2022/01/13 02:58:53;;;;;;;26.07;8.87;;;;;;;0.28;100.00;103939.13;2091297;28;20036;-67
2022/01/13 02:59:53;;;;;;;38.57;9.17;;;;;;;0.29;100.00;103934.84;2091420;28;20031;-66
2022/01/13 03:00:54;;;;;;;26.20;8.97;;;;;;;0.28;100.00;103933.09;2090636;28;20059;-66
2022/01/13 03:01:54;;;;;;;29.97;8.70;;;;;;;0.28;100.00;103935.66;2090705;28;20028;-66
2022/01/13 03:02:54;;;;;;;31.23;9.70;;;;;;;0.27;100.00;103933.91;2091419;28;20020;-66
2022/01/13 03:03:55;;;;;;;36.80;9.47;;;;;;;0.25;100.00;103932.13;2090698;28;20490;-66
2022/01/13 03:04:55;;;;;;;30.93;9.87;;;;;;;0.24;100.00;103935.50;2090768;28;20021;-66
2022/01/13 03:05:56;;;;;;;34.80;10.35;;;;;;;0.24;100.00;103940.66;2091304;28;20477;-67
2022/01/13 03:06:56;;;;;;;22.70;8.90;;;;;;;0.24;100.00;103925.22;2091331;28;20028;-66
2022/01/13 03:07:56;;;;;;;32.90;8.70;;;;;;;0.22;100.00;103937.13;2091237;28;20027;-66
2022/01/13 03:08:57;;;;;;;25.13;8.43;;;;;;;0.25;100.00;103934.69;2091325;28;20410;-65
2022/01/13 03:09:57;;;;;;;25.17;8.60;;;;;;;0.24;100.00;103932.94;2091149;28;20079;-66
2022/01/13 03:10:57;;;;;;;19.93;8.43;;;;;;;0.23;100.00;103931.19;2091209;28;20283;-66
2022/01/13 03:11:57;;;;;;;18.73;8.60;;;;;;;0.22;100.00;103926.84;2091310;28;20028;-66
2022/01/13 03:12:59;;;;;;;17.60;8.47;;;;;;;0.22;100.00;103924.28;2090567;28;20048;-66
2022/01/13 03:14:01;;;;;;;25.70;9.32;;;;;;;0.22;100.00;103924.28;2090643;28;20060;-66
2022/01/13 03:15:01;;;;;;;19.20;8.00;;;;;;;0.21;100.00;103919.94;2091247;28;20021;-66
2022/01/13 03:16:06;;;;;;;32.37;9.83;;;;;;;0.21;100.00;103914.78;2091243;28;20434;-66
2022/01/13 03:17:06;;;;;;;21.70;9.13;;;;;;;0.22;100.00;103910.56;2091152;28;20053;-66
2022/01/13 03:18:07;;;;;;;33.87;9.53;;;;;;;0.21;100.00;103912.22;2091246;28;20390;-66
2022/01/13 03:19:08;;;;;;;34.47;10.70;;;;;;;0.22;100.00;103916.59;2091293;28;20344;-66
2022/01/13 03:20:09;;;;;;;35.97;9.65;;;;;;;0.23;100.00;103910.63;2091182;28;20025;-66
2022/01/13 03:21:09;;;;;;;23.75;8.65;;;;;;;0.24;100.00;103911.53;2091260;28;20385;-66
2022/01/13 03:22:09;;;;;;;24.47;9.30;;;;;;;0.26;100.00;103912.47;2091256;28;20056;-66
2022/01/13 03:23:10;;;;;;;33.83;9.90;;;;;;;0.27;100.00;103908.22;2091098;28;20099;-66
2022/01/13 03:24:11;;;;;;;35.22;10.05;;;;;;;0.27;100.00;103910.78;2091058;28;20417;-65
2022/01/13 03:25:14;;;;;;;26.92;9.80;;;;;;;0.27;100.00;103909.09;2091112;28;20107;-65
2022/01/13 03:26:14;;;;;;;32.92;10.07;;;;;;;0.29;100.00;103911.75;2090946;28;20024;-66
2022/01/13 03:27:20;;;;;;;24.50;8.67;;;;;;;0.30;100.00;103910.97;2091044;28;20413;-66
2022/01/13 03:28:30;;;;;;;36.88;11.00;;;;;;;0.29;100.00;103912.63;2091020;28;20039;-66
2022/01/13 03:29:30;;;;;;;32.53;10.40;;;;;;;0.29;100.00;103912.63;2091158;28;20021;-65
2022/01/13 03:30:32;;;;;;;33.73;10.30;;;;;;;0.29;100.00;103911.75;2091004;28;20057;-65
2022/01/13 03:31:32;;;;;;;35.40;10.55;;;;;;;0.29;100.00;103909.16;2090435;28;20135;-65
2022/01/13 03:32:34;;;;;;;30.27;10.37;;;;;;;0.28;100.00;103909.97;2090511;28;20100;-66
2022/01/13 03:33:35;;;;;;;24.17;8.63;;;;;;;0.25;100.00;103909.00;2090391;28;20348;-66
2022/01/13 03:34:35;;;;;;;36.38;9.73;;;;;;;0.28;100.00;103908.31;2090570;28;20411;-66
2022/01/13 03:35:40;;;;;;;42.00;11.43;;;;;;;0.29;100.00;103911.75;2090994;28;20025;-67
2022/01/13 03:36:44;;;;;;;31.70;10.73;;;;;;;0.30;100.00;103913.53;2091141;28;20033;-67
2022/01/13 03:37:45;;;;;;;32.67;10.38;;;;;;;0.28;100.00;103904.84;2091172;28;20469;-66
2022/01/13 03:38:46;;;;;;;34.78;10.77;;;;;;;0.27;100.00;103909.09;2091088;28;20112;-65
2022/01/13 03:39:46;;;;;;;40.17;10.30;;;;;;;0.24;100.00;103914.97;2091090;28;20032;-66
2022/01/13 03:40:46;;;;;;;32.67;9.53;;;;;;;0.24;100.00;103914.97;2091045;28;20036;-66
2022/01/13 03:41:47;;;;;;;33.67;9.53;;;;;;;0.25;100.00;103910.72;2091026;28;20056;-66
2022/01/13 03:42:48;;;;;;;33.90;8.97;;;;;;;0.24;100.00;103914.97;2091077;28;20083;-66
2022/01/13 03:43:54;;;;;;;40.75;10.68;;;;;;;0.23;100.00;103918.34;2091097;28;20099;-65
2022/01/13 03:44:55;;;;;;;45.17;10.77;;;;;;;0.22;100.00;103911.44;2091057;28;20118;-66
2022/01/13 03:45:55;;;;;;;42.67;9.93;;;;;;;0.21;100.00;103907.09;2091105;28;20474;-65
2022/01/13 03:46:59;;;;;;;39.77;12.30;;;;;;;0.21;100.00;103909.66;2091033;28;20021;-66
2022/01/13 03:48:00;;;;;;;42.45;11.10;;;;;;;0.20;100.00;103907.91;2090937;28;20024;-66
2022/01/13 03:49:01;;;;;;;45.10;10.63;;;;;;;0.20;100.00;103910.47;2090900;28;20429;-66
2022/01/13 03:50:01;;;;;;;47.10;10.57;;;;;;;0.22;100.00;103911.44;2090156;28;20059;-66
2022/01/13 03:51:01;;;;;;;41.57;12.57;;;;;;;0.22;100.00;103911.44;2090370;28;20025;-65
2022/01/13 03:52:21;;;;;;;43.47;10.27;;;;;;;0.23;100.00;103912.31;2090451;28;20045;-65
2022/01/13 03:53:28;;;;;;;31.92;12.20;;;;;;;0.24;100.00;103908.97;2090931;28;20125;-65
2022/01/13 03:54:34;;;;;;;31.25;9.00;;;;;;;0.27;100.00;103908.22;2090931;28;20075;-65
2022/01/13 03:55:35;;;;;;;40.03;10.75;;;;;;;0.27;100.00;103910.78;2090955;28;20036;-66
2022/01/13 03:56:41;;;;;;;33.30;9.18;;;;;;;0.25;100.00;103911.56;2090967;28;20055;-65
2022/01/13 03:58:15;;;;;;;43.83;11.23;;;;;;;0.23;100.00;103913.19;2090195;28;20040;-65
2022/01/13 03:59:40;;;;;;;38.58;11.80;;;;;;;0.24;100.00;103914.09;2090081;28;20029;-65
2022/01/13 04:01:05;;;;;;;36.83;10.90;;;;;;;0.25;100.00;103916.72;2085102;28;20486;-67
2022/01/13 04:02:12;;;;;;;31.13;9.35;;;;;;;0.25;100.00;103906.44;2085224;28;20017;-66
2022/01/13 04:03:13;;;;;;;32.08;10.40;;;;;;;0.25;100.00;103906.44;2082832;28;20029;-65
2022/01/13 04:04:13;;;;;;;26.20;10.77;;;;;;;0.23;100.00;103908.06;2090262;28;20017;-66
2022/01/13 04:05:13;;;;;;;27.53;11.63;;;;;;;0.21;100.00;103904.53;2090142;28;20017;-66
2022/01/13 04:06:14;;;;;;;26.40;9.17;;;;;;;0.22;100.00;103908.88;2081841;28;20026;-67
2022/01/13 04:07:17;;;;;;;37.83;12.90;;;;;;;0.20;100.00;103910.47;2081170;28;20036;-65
2022/01/13 04:08:18;;;;;;;38.65;11.02;;;;;;;0.19;100.00;103910.38;2090268;28;20024;-66
2022/01/13 04:09:33;;;;;;;49.93;11.87;;;;;;;0.20;100.00;103902.75;2090875;28;20078;-66
2022/01/13 04:10:45;;;;;;;43.90;11.88;;;;;;;0.18;100.00;103906.97;2090769;28;20029;-66
2022/01/13 04:11:46;;;;;;;38.28;12.88;;;;;;;0.19;100.00;103903.56;2090735;28;20033;-64
2022/01/13 04:12:46;;;;;;;33.33;11.65;;;;;;;0.18;100.00;103904.41;2090863;28;20048;-65
2022/01/13 04:14:52;;;;;;;40.17;11.33;;;;;;;0.11;100.00;103900.59;2090956;28;20098;-67
2022/01/13 04:15:53;;;;;;;38.00;11.88;;;;;;;0.12;100.00;103901.50;2090793;28;20021;-66
2022/01/13 04:16:53;;;;;;;43.63;12.37;;;;;;;0.10;100.00;103895.41;2090865;28;20029;-66
2022/01/13 04:17:53;;;;;;;38.83;12.23;;;;;;;0.10;100.00;103895.41;2090816;28;20024;-66
2022/01/13 04:18:59;;;;;;;35.70;11.37;;;;;;;0.10;100.00;103900.56;2090854;28;20040;-65
2022/01/13 04:19:59;;;;;;;32.05;12.45;;;;;;;0.09;100.00;103894.53;2090756;28;20107;-66
2022/01/13 04:21:00;;;;;;;34.00;11.07;;;;;;;0.08;100.00;103897.00;2090757;28;20417;-66
2022/01/13 04:22:02;;;;;;;44.00;11.73;;;;;;;0.09;100.00;103891.06;2090715;28;20017;-65
2022/01/13 04:23:03;;;;;;;44.22;12.30;;;;;;;0.10;100.00;103893.72;2090704;28;20029;-65
2022/01/13 04:24:05;;;;;;;43.80;12.13;;;;;;;0.13;100.00;103887.84;2089855;28;20017;-65
2022/01/13 04:25:06;;;;;;;39.30;12.45;;;;;;;0.10;100.00;103890.28;2090103;28;20486;-65
2022/01/13 04:26:07;;;;;;;37.63;13.25;;;;;;;0.10;100.00;103895.41;2090491;28;20462;-67
2022/01/13 04:27:09;;;;;;;35.47;11.30;;;;;;;0.11;100.00;103892.03;2090716;28;20045;-66
2022/01/13 04:28:10;;;;;;;32.05;11.68;;;;;;;0.12;100.00;103893.78;2090623;28;20391;-66
2022/01/13 04:30:33;;;;;;;31.52;10.55;;;;;;;0.14;100.00;103902.47;2090596;28;20044;-65
2022/01/13 04:31:31;;;;;;;24.67;10.25;;;;;;;0.11;100.00;103902.31;2090539;28;20116;-66
2022/01/13 04:32:32;;;;;;;33.07;10.53;;;;;;;0.08;100.00;103903.03;2090617;28;20044;-66
2022/01/13 04:33:34;;;;;;;23.47;9.67;;;;;;;0.09;100.00;103903.91;2090669;28;20021;-66
2022/01/13 04:34:35;;;;;;;31.83;12.82;;;;;;;0.12;100.00;103904.06;2090624;28;20036;-66
2022/01/13 04:35:35;;;;;;;33.00;11.17;;;;;;;0.10;100.00;103903.13;2090630;28;20032;-65
2022/01/13 04:36:35;;;;;;;32.20;11.40;;;;;;;0.10;100.00;103895.41;2090558;28;20055;-66
2022/01/13 04:37:36;;;;;;;33.95;11.13;;;;;;;0.13;100.00;103900.69;2090507;28;20107;-66
2022/01/13 04:38:36;;;;;;;46.17;10.95;;;;;;;0.16;100.00;103895.72;2090593;28;20035;-66
2022/01/13 04:39:37;;;;;;;28.37;11.27;;;;;;;0.15;100.00;103901.66;2090628;28;20584;-66
2022/01/13 04:40:44;;;;;;;32.23;10.87;;;;;;;0.13;100.00;103895.53;2090562;28;20060;-67
2022/01/13 04:41:46;;;;;;;33.38;13.48;;;;;;;0.14;100.00;103896.44;2090566;28;20466;-66
2022/01/13 04:42:53;;;;;;;32.70;11.85;;;;;;;0.15;100.00;103899.09;2090621;28;20024;-66
2022/01/13 04:43:53;;;;;;;36.97;12.20;;;;;;;0.17;100.00;103887.19;2090561;28;20397;-66
2022/01/13 04:44:53;;;;;;;28.90;12.17;;;;;;;0.17;100.00;103891.47;2090552;28;20085;-66
2022/01/13 04:45:53;;;;;;;45.53;13.37;;;;;;;0.19;100.00;103893.31;2090547;28;20132;-65
2022/01/13 04:46:54;;;;;;;41.00;13.33;;;;;;;0.18;100.00;103885.53;2089876;28;20051;-64
2022/01/13 04:47:56;;;;;;;38.70;12.35;;;;;;;0.18;100.00;103888.97;2089816;28;20020;-64
2022/01/13 04:48:56;;;;;;;37.65;13.48;;;;;;;0.18;100.00;103891.56;2090530;28;20021;-65
2022/01/13 04:49:57;;;;;;;51.53;14.23;;;;;;;0.16;100.00;103890.56;2089765;28;20049;-64
2022/01/13 04:50:57;;;;;;;42.77;12.07;;;;;;;0.17;100.00;103897.47;2089955;28;20198;-65
2022/01/13 04:51:57;;;;;;;40.57;12.90;;;;;;;0.18;100.00;103888.97;2090462;28;20017;-66
2022/01/13 04:52:57;;;;;;;42.20;12.83;;;;;;;0.19;100.00;103890.72;2089914;28;20021;-65
2022/01/13 04:53:58;;;;;;;40.80;12.40;;;;;;;0.19;100.00;103892.41;2089931;28;20451;-64
2022/01/13 04:55:07;;;;;;;48.05;13.60;;;;;;;0.18;100.00;103891.56;2090442;28;20021;-65
2022/01/13 04:56:12;;;;;;;68.15;15.07;;;;;;;0.17;100.00;103891.47;2090457;28;20428;-65
2022/01/13 04:57:17;;;;;;;42.42;11.73;;;;;;;0.18;100.00;103891.56;2090460;28;20339;-64